createdAt,value
2019-03-28T00:01:57.434Z,4.91
2019-03-28T00:05:06.384Z,4.82
2019-03-28T00:08:15.065Z,4.77
2019-03-28T00:11:24.170Z,4.86
2019-03-28T00:14:32.502Z,4.60
2019-03-28T00:17:40.687Z,4.70
2019-03-28T00:20:49.147Z,4.70
2019-03-28T00:24:20.125Z,4.67
2019-03-28T00:27:28.375Z,4.66
2019-03-28T00:30:36.454Z,4.69
2019-03-28T00:33:44.633Z,4.73
2019-03-28T00:36:53.199Z,4.66
2019-03-28T00:40:01.613Z,4.68
2019-03-28T00:43:09.974Z,4.68
2019-03-28T00:46:18.272Z,4.56
2019-03-28T00:49:26.707Z,4.61
2019-03-28T00:52:35.435Z,4.72
2019-03-28T00:55:43.684Z,4.70
2019-03-28T00:58:52.270Z,4.70
2019-03-28T01:02:00.686Z,4.77
2019-03-28T01:05:09.553Z,4.61
2019-03-28T01:08:17.532Z,4.61
2019-03-28T01:11:26.496Z,4.55
2019-03-28T01:14:34.578Z,4.71
2019-03-28T01:17:42.975Z,4.60
2019-03-28T01:20:51.417Z,4.73
2019-03-28T01:24:00.535Z,4.61
2019-03-28T01:27:09.458Z,4.55
2019-03-28T01:30:17.983Z,4.58
2019-03-28T01:33:26.808Z,4.71
2019-03-28T01:36:35.073Z,4.49
2019-03-28T01:39:43.475Z,4.35
2019-03-28T01:42:51.549Z,4.31
2019-03-28T01:45:59.836Z,4.39
2019-03-28T01:49:08.081Z,4.39
2019-03-28T01:52:16.467Z,4.44
2019-03-28T01:55:25.015Z,4.60
2019-03-28T02:01:50.165Z,4.44
2019-03-28T02:04:58.318Z,4.32
2019-03-28T02:08:07.818Z,4.11
2019-03-28T02:11:18.279Z,3.85
2019-03-28T02:14:26.635Z,3.70
2019-03-28T02:17:34.821Z,3.78
2019-03-28T02:20:42.941Z,3.92
2019-03-28T02:23:51.504Z,3.95
2019-03-28T02:27:00.202Z,3.99
2019-03-28T02:30:09.088Z,4.11
2019-03-28T02:33:17.598Z,4.26
2019-03-28T02:36:25.668Z,4.26
2019-03-28T02:39:34.626Z,4.33
2019-03-28T02:42:42.711Z,4.23
2019-03-28T02:45:50.934Z,4.25
2019-03-28T02:48:59.233Z,4.26
2019-03-28T02:52:07.226Z,4.31
2019-03-28T02:55:15.653Z,4.31
2019-03-28T02:58:23.990Z,4.24
2019-03-28T03:01:31.951Z,4.30
2019-03-28T03:04:40.134Z,4.32
2019-03-28T03:07:49.024Z,4.30
2019-03-28T03:10:57.102Z,4.46
2019-03-28T03:14:05.486Z,4.20
2019-03-28T03:17:15.768Z,4.17
2019-03-28T03:20:24.439Z,4.16
2019-03-28T03:23:32.780Z,4.29
2019-03-28T03:26:41.275Z,4.26
2019-03-28T03:29:49.750Z,4.16
2019-03-28T03:32:57.944Z,4.20
2019-03-28T03:36:06.583Z,4.08
2019-03-28T03:39:14.751Z,4.09
2019-03-28T03:42:23.239Z,4.20
2019-03-28T03:45:31.430Z,4.32
2019-03-28T03:48:40.788Z,4.20
2019-03-28T03:51:49.122Z,4.31
2019-03-28T03:54:57.176Z,4.30
2019-03-28T03:58:15.329Z,4.37
2019-03-28T04:01:15.451Z,4.31
2019-03-28T04:04:23.598Z,4.22
2019-03-28T04:07:31.793Z,4.22
2019-03-28T04:10:40.447Z,4.21
2019-03-28T04:13:48.583Z,4.27
2019-03-28T04:16:56.555Z,4.29
2019-03-28T04:20:05.596Z,4.23
2019-03-28T04:23:14.008Z,4.16
2019-03-28T04:26:25.326Z,4.19
2019-03-28T04:29:33.429Z,4.20
2019-03-28T04:32:42.208Z,4.24
2019-03-28T04:35:50.301Z,4.19
2019-03-28T04:38:58.561Z,4.09
2019-03-28T04:42:07.186Z,4.19
2019-03-28T04:45:15.507Z,4.20
2019-03-28T04:48:23.795Z,4.16
2019-03-28T04:51:32.232Z,4.18
2019-03-28T04:54:40.858Z,4.14
2019-03-28T04:57:49.147Z,4.22
2019-03-28T05:00:57.148Z,4.33
2019-03-28T05:04:05.349Z,4.32
2019-03-28T05:07:13.600Z,4.37
2019-03-28T05:10:21.790Z,4.26
2019-03-28T05:13:29.865Z,4.18
2019-03-28T05:16:38.245Z,4.21
2019-03-28T05:19:46.616Z,4.25
2019-03-28T05:22:55.379Z,4.26
2019-03-28T05:26:03.609Z,4.31
2019-03-28T05:29:12.113Z,4.33
2019-03-28T05:32:26.292Z,4.36
2019-03-28T05:35:34.627Z,4.43
2019-03-28T05:38:42.800Z,4.54
2019-03-28T05:41:50.902Z,4.61
2019-03-28T05:44:59.161Z,4.72
2019-03-28T05:48:07.271Z,4.68
2019-03-28T05:51:15.681Z,4.78
2019-03-28T05:54:24.064Z,4.68
2019-03-28T05:57:32.441Z,4.80
2019-03-28T06:00:40.640Z,4.86
2019-03-28T06:03:48.722Z,4.92
2019-03-28T06:06:56.923Z,5.11
2019-03-28T06:10:06.229Z,5.06
2019-03-28T06:13:15.801Z,5.34
2019-03-28T06:16:24.064Z,5.48
2019-03-28T06:19:32.254Z,5.70
2019-03-28T06:22:40.242Z,5.84
2019-03-28T06:25:49.471Z,5.76
2019-03-28T06:28:58.194Z,5.98
2019-03-28T06:32:06.281Z,6.18
2019-03-28T06:35:14.478Z,6.33
2019-03-28T06:38:22.470Z,6.50
2019-03-28T06:41:30.740Z,6.71
2019-03-28T06:44:38.972Z,6.79
2019-03-28T06:47:47.268Z,6.83
2019-03-28T06:51:28.514Z,6.96
2019-03-28T06:54:36.948Z,7.10
2019-03-28T06:57:45.029Z,7.30
2019-03-28T07:00:56.845Z,7.35
2019-03-28T07:04:05.428Z,7.56
2019-03-28T07:07:14.124Z,7.66
2019-03-28T07:10:22.320Z,7.80
2019-03-28T07:13:30.635Z,8.02
2019-03-28T07:16:38.971Z,7.83
2019-03-28T07:19:47.049Z,8.26
2019-03-28T07:22:55.405Z,8.24
2019-03-28T07:26:04.119Z,8.59
2019-03-28T07:29:12.455Z,8.57
2019-03-28T07:32:20.648Z,8.76
2019-03-28T07:35:28.828Z,9.00
2019-03-28T07:38:37.012Z,9.10
2019-03-28T07:41:45.286Z,9.42
2019-03-28T07:44:53.511Z,9.49
2019-03-28T07:48:01.992Z,9.64
2019-03-28T07:51:10.209Z,9.75
2019-03-28T07:54:18.300Z,9.78
2019-03-28T07:57:26.407Z,10.05
2019-03-28T08:00:34.580Z,10.62
2019-03-28T08:03:42.770Z,10.68
2019-03-28T08:06:51.868Z,10.96
2019-03-28T08:10:00.428Z,10.91
2019-03-28T08:13:09.422Z,10.79
2019-03-28T08:16:17.759Z,10.62
2019-03-28T08:19:25.943Z,10.74
2019-03-28T08:22:33.922Z,11.08
2019-03-28T08:25:42.411Z,12.27
2019-03-28T08:28:50.594Z,12.39
2019-03-28T08:32:00.551Z,12.72
2019-03-28T08:35:10.453Z,12.43
2019-03-28T08:38:22.084Z,12.21
2019-03-28T08:41:30.461Z,11.78
2019-03-28T08:44:38.859Z,11.66
2019-03-28T08:47:47.374Z,11.49
2019-03-28T08:50:55.705Z,11.81
2019-03-28T08:54:03.899Z,11.78
2019-03-28T08:57:13.739Z,11.39
2019-03-28T09:00:33.033Z,11.11
2019-03-28T09:03:32.898Z,11.24
2019-03-28T09:06:41.135Z,11.41
2019-03-28T09:09:50.085Z,11.87
2019-03-28T09:12:58.418Z,12.10
2019-03-28T09:16:07.145Z,12.03
2019-03-28T09:19:15.303Z,11.98
2019-03-28T09:22:23.700Z,11.88
2019-03-28T09:25:32.302Z,11.81
2019-03-28T09:28:40.929Z,11.98
2019-03-28T09:31:49.159Z,12.27
2019-03-28T09:34:58.251Z,12.35
2019-03-28T09:38:06.776Z,12.43
2019-03-28T09:41:15.297Z,11.88
2019-03-28T09:44:23.682Z,11.60
2019-03-28T09:47:32.182Z,11.59
2019-03-28T09:50:40.481Z,11.36
2019-03-28T09:53:49.406Z,11.08
2019-03-28T09:56:57.753Z,11.12
2019-03-28T10:00:07.584Z,11.21
2019-03-28T10:03:16.237Z,11.67
2019-03-28T10:06:24.950Z,12.06
2019-03-28T10:09:33.090Z,12.38
2019-03-28T10:12:43.954Z,12.41
2019-03-28T10:15:51.189Z,12.67
2019-03-28T10:18:59.737Z,12.91
2019-03-28T10:22:08.087Z,12.48
2019-03-28T10:25:16.764Z,12.44
2019-03-28T10:28:24.925Z,12.41
2019-03-28T10:31:33.481Z,12.63
2019-03-28T10:34:41.772Z,12.66
2019-03-28T10:37:50.234Z,13.26
2019-03-28T10:40:58.353Z,13.31
2019-03-28T10:44:06.569Z,12.88
2019-03-28T10:47:14.826Z,13.28
2019-03-28T10:50:23.154Z,13.28
2019-03-28T10:53:31.296Z,13.18
2019-03-28T10:56:51.045Z,13.43
2019-03-28T10:59:50.171Z,13.72
2019-03-28T11:02:58.490Z,13.64
2019-03-28T11:06:06.820Z,13.46
2019-03-28T11:09:15.327Z,13.36
2019-03-28T11:12:23.663Z,13.52
2019-03-28T11:15:32.261Z,13.65
2019-03-28T11:18:40.595Z,14.11
2019-03-28T11:21:48.866Z,13.87
2019-03-28T11:24:57.769Z,13.95
2019-03-28T11:28:06.053Z,13.68
2019-03-28T11:31:14.455Z,13.66
2019-03-28T11:34:22.690Z,14.02
2019-03-28T11:37:30.922Z,14.27
2019-03-28T11:40:41.256Z,14.83
2019-03-28T11:43:49.423Z,14.78
2019-03-28T11:46:57.986Z,14.46
2019-03-28T11:50:07.727Z,14.89
2019-03-28T11:53:15.970Z,15.10
2019-03-28T11:56:24.207Z,14.84
2019-03-28T11:59:33.160Z,14.07
2019-03-28T12:02:41.780Z,13.70
2019-03-28T12:05:52.976Z,13.01
2019-03-28T12:09:00.050Z,13.09
2019-03-28T12:12:08.326Z,13.23
2019-03-28T12:15:16.755Z,12.91
2019-03-28T12:18:25.349Z,12.67
2019-03-28T12:21:33.724Z,12.69
2019-03-28T12:24:41.835Z,12.86
2019-03-28T12:27:50.062Z,12.72
2019-03-28T12:30:58.297Z,13.11
2019-03-28T12:34:06.502Z,13.07
2019-03-28T12:37:14.647Z,13.41
2019-03-28T12:40:22.882Z,14.12
2019-03-28T12:43:31.179Z,14.27
2019-03-28T12:46:39.456Z,14.06
2019-03-28T12:49:47.972Z,14.56
2019-03-28T12:52:58.252Z,14.04
2019-03-28T12:56:06.762Z,13.82
2019-03-28T12:59:15.546Z,13.49
2019-03-28T13:02:31.352Z,13.73
2019-03-28T13:05:34.840Z,13.37
2019-03-28T13:08:43.783Z,13.27
2019-03-28T13:11:52.356Z,13.60
2019-03-28T13:15:00.483Z,13.71
2019-03-28T13:18:08.706Z,14.08
2019-03-28T13:21:16.817Z,14.15
2019-03-28T13:24:25.274Z,14.35
2019-03-28T13:27:34.819Z,14.21
2019-03-28T13:30:43.498Z,13.76
2019-03-28T13:33:52.389Z,14.01
2019-03-28T13:37:00.395Z,14.44
2019-03-28T13:40:09.289Z,14.96
2019-03-28T13:43:17.670Z,14.63
2019-03-28T13:46:25.886Z,14.02
2019-03-28T13:49:34.045Z,14.07
2019-03-28T13:52:42.520Z,14.16
2019-03-28T13:55:52.220Z,13.82
2019-03-28T13:59:00.843Z,14.08
2019-03-28T14:02:10.528Z,14.09
2019-03-28T14:05:20.450Z,14.71
2019-03-28T14:08:30.248Z,14.54
2019-03-28T14:11:39.949Z,14.43
2019-03-28T14:14:48.598Z,14.21
2019-03-28T14:17:58.130Z,14.01
2019-03-28T14:21:09.712Z,13.51
2019-03-28T14:24:17.999Z,13.53
2019-03-28T14:27:26.131Z,13.42
2019-03-28T14:30:34.555Z,13.23
2019-03-28T14:33:42.974Z,13.40
2019-03-28T14:36:51.488Z,13.31
2019-03-28T14:40:00.030Z,13.30
2019-03-28T14:43:10.754Z,12.95
2019-03-28T14:46:19.711Z,12.43
2019-03-28T14:49:27.971Z,12.61
2019-03-28T14:52:36.379Z,12.74
2019-03-28T14:55:45.324Z,12.61
2019-03-28T14:58:57.106Z,12.56
2019-03-28T15:02:05.567Z,12.73
2019-03-28T15:05:14.128Z,12.68
2019-03-28T15:08:23.145Z,12.50
2019-03-28T15:11:31.687Z,12.60
2019-03-28T15:14:40.238Z,12.44
2019-03-28T15:17:49.335Z,12.50
2019-03-28T15:20:58.980Z,12.58
2019-03-28T15:24:07.597Z,12.62
2019-03-28T15:27:16.403Z,12.67
2019-03-28T15:30:24.738Z,12.51
2019-03-28T15:33:39.423Z,12.47
2019-03-28T15:36:43.732Z,12.58
2019-03-28T15:39:52.453Z,12.72
2019-03-28T15:43:00.977Z,12.68
2019-03-28T15:46:10.041Z,12.73
2019-03-28T15:49:18.501Z,12.59
2019-03-28T15:52:27.544Z,12.45
2019-03-28T15:55:36.515Z,12.35
2019-03-28T15:58:45.169Z,12.29
2019-03-28T16:01:53.675Z,12.22
2019-03-28T16:05:03.225Z,12.15
2019-03-28T16:08:12.438Z,11.96
2019-03-28T16:12:01.742Z,12.01
2019-03-28T16:14:59.054Z,12.11
2019-03-28T16:18:08.308Z,12.05
2019-03-28T16:21:17.050Z,12.03
2019-03-28T16:24:26.595Z,11.97
2019-03-28T16:27:35.417Z,12.01
2019-03-28T16:30:44.018Z,11.90
2019-03-28T16:34:05.873Z,11.75
2019-03-28T16:37:03.348Z,11.60
2019-03-28T16:40:12.208Z,11.39
2019-03-28T16:43:21.160Z,11.42
2019-03-28T16:46:29.925Z,11.46
2019-03-28T16:49:38.811Z,11.28
2019-03-28T16:52:48.296Z,11.20
2019-03-28T16:55:57.493Z,11.11
2019-03-28T16:59:05.931Z,11.07
2019-03-28T17:02:15.248Z,11.05
2019-03-28T17:05:23.883Z,11.00
2019-03-28T17:08:33.363Z,10.98
2019-03-28T17:11:41.746Z,10.99
2019-03-28T17:14:50.355Z,10.91
2019-03-28T17:17:58.726Z,10.81
2019-03-28T17:21:07.427Z,10.76
2019-03-28T17:24:15.552Z,10.72
2019-03-28T17:27:24.148Z,10.58
2019-03-28T17:30:33.284Z,10.31
2019-03-28T17:33:42.292Z,10.27
2019-03-28T17:36:50.570Z,10.17
2019-03-28T17:39:59.334Z,10.02
2019-03-28T17:43:08.568Z,10.05
2019-03-28T17:46:18.215Z,9.94
2019-03-28T17:49:28.021Z,9.88
2019-03-28T17:52:37.209Z,9.83
2019-03-28T17:55:46.037Z,9.85
2019-03-28T17:58:55.258Z,9.64
2019-03-28T18:02:03.919Z,9.61
2019-03-28T18:05:15.742Z,9.44
2019-03-28T18:08:23.390Z,9.47
2019-03-28T18:11:32.361Z,9.30
2019-03-28T18:14:41.166Z,9.33
2019-03-28T18:17:51.596Z,9.33
2019-03-28T18:21:00.846Z,9.24
2019-03-28T18:24:09.528Z,9.18
2019-03-28T18:27:20.674Z,8.99
2019-03-28T18:30:29.098Z,9.16
2019-03-28T18:33:38.585Z,9.06
2019-03-28T18:36:47.410Z,9.12
2019-03-28T18:39:55.875Z,9.06
2019-03-28T18:43:05.242Z,8.91
2019-03-28T18:46:14.926Z,8.64
2019-03-28T18:49:23.294Z,8.50
2019-03-28T18:52:31.407Z,8.30
2019-03-28T18:55:40.115Z,8.22
2019-03-28T18:58:49.549Z,8.18
2019-03-28T19:01:58.563Z,8.32
2019-03-28T19:05:19.222Z,8.42
2019-03-28T19:08:18.585Z,8.47
2019-03-28T19:11:27.546Z,8.51
2019-03-28T19:14:35.962Z,8.46
2019-03-28T19:17:46.073Z,8.39
2019-03-28T19:20:54.640Z,8.48
2019-03-28T19:24:03.382Z,8.45
2019-03-28T19:27:12.445Z,8.38
2019-03-28T19:30:31.558Z,8.52
2019-03-28T19:33:40.901Z,8.52
2019-03-28T19:36:52.443Z,8.43
2019-03-28T19:43:20.792Z,8.53
2019-03-28T19:46:26.019Z,8.43
2019-03-28T19:49:34.535Z,8.35
2019-03-28T19:52:43.231Z,8.63
2019-03-28T19:55:52.092Z,8.45
2019-03-28T19:59:00.670Z,8.42
2019-03-28T20:02:28.268Z,8.60
2019-03-28T20:05:47.624Z,8.59
2019-03-28T20:08:47.479Z,8.55
2019-03-28T20:12:00.053Z,8.41
2019-03-28T20:15:08.432Z,8.32
2019-03-28T20:18:17.346Z,8.37
2019-03-28T20:21:26.011Z,8.33
2019-03-28T20:24:35.353Z,8.29
2019-03-28T20:27:44.059Z,8.24
2019-03-28T20:30:53.834Z,8.25
2019-03-28T20:34:03.173Z,8.23
2019-03-28T20:37:12.399Z,8.38
2019-03-28T20:40:21.267Z,8.25
2019-03-28T20:43:31.327Z,8.27
2019-03-28T20:46:40.885Z,8.27
2019-03-28T20:49:49.422Z,8.25
2019-03-28T20:52:57.713Z,8.20
2019-03-28T20:56:05.938Z,8.26
2019-03-28T20:59:14.758Z,8.35
2019-03-28T21:02:23.573Z,8.39
2019-03-28T21:05:32.206Z,8.20
2019-03-28T21:08:40.920Z,8.27
2019-03-28T21:11:49.552Z,8.21
2019-03-28T21:14:58.210Z,8.27
2019-03-28T21:18:06.590Z,8.27
2019-03-28T21:21:15.991Z,8.24
2019-03-28T21:24:25.011Z,8.27
2019-03-28T21:27:33.754Z,8.18
2019-03-28T21:30:47.588Z,8.20
2019-03-28T21:33:54.931Z,8.22
2019-03-28T21:37:06.169Z,8.18
2019-03-28T21:40:13.083Z,8.28
2019-03-28T21:43:21.536Z,8.22
2019-03-28T21:46:29.888Z,8.30
2019-03-28T21:49:38.273Z,8.16
2019-03-28T21:52:46.873Z,8.22
2019-03-28T21:55:57.334Z,8.22
2019-03-28T21:59:05.305Z,8.10
2019-03-28T22:02:13.595Z,8.05
2019-03-28T22:05:22.232Z,8.16
2019-03-28T22:08:30.933Z,8.14
2019-03-28T22:11:39.295Z,8.19
2019-03-28T22:14:48.327Z,8.25
2019-03-28T22:17:56.842Z,8.13
2019-03-28T22:21:05.269Z,8.06
2019-03-28T22:24:13.768Z,8.13
2019-03-28T22:27:22.082Z,8.03
2019-03-28T22:30:30.561Z,7.98
2019-03-28T22:33:39.317Z,8.00
2019-03-28T22:36:57.267Z,8.07
2019-03-28T22:39:57.607Z,7.86
2019-03-28T22:43:06.984Z,7.81
2019-03-28T22:46:15.868Z,7.72
2019-03-28T22:49:24.816Z,7.75
2019-03-28T22:52:33.292Z,7.74
2019-03-28T22:55:41.774Z,7.87
2019-03-28T22:58:50.563Z,7.87
2019-03-28T23:01:58.870Z,7.81
2019-03-28T23:05:08.682Z,7.71
2019-03-28T23:08:17.243Z,7.60
2019-03-28T23:11:25.771Z,7.67
2019-03-28T23:14:34.270Z,7.59
2019-03-28T23:17:42.510Z,7.64
2019-03-28T23:20:50.717Z,7.58
2019-03-28T23:23:59.333Z,7.55
2019-03-28T23:27:07.533Z,7.58
2019-03-28T23:30:16.338Z,7.59
2019-03-28T23:33:24.998Z,7.65
2019-03-28T23:36:33.617Z,7.65
2019-03-28T23:39:41.992Z,7.71
2019-03-28T23:42:50.262Z,7.69
2019-03-28T23:45:58.457Z,7.71
2019-03-28T23:49:06.682Z,7.60
2019-03-28T23:52:14.894Z,7.59
2019-03-28T23:55:22.939Z,7.63
2019-03-28T23:58:32.660Z,7.55
